Wednesday, December 19, 2018, 12:54 AM EST
Back to Local

KVAY, Mt Holly South Jersey Rgnl

Location: Medford, NJ, United States Lat: 39.933
Local Time: 12:54 AM EST ( 5:54 GMT) Lon: -74.833
Time Zone: US/Eastern Elev: 52 ft

Show me the last for .
Show Decoded

2018-12-18 23:54 METAR KVAY 190454Z AUTO 00000KT 10SM CLR M04/M08 A3017 RMK AO2 SLP218 T10391078
                 400501044 =
2018-12-18 22:54 METAR KVAY 190354Z AUTO 00000KT 10SM CLR M03/M08 A3018 RMK AO2 SLP220 T10331078
                 =
2018-12-18 21:54 METAR KVAY 190254Z AUTO 00000KT 10SM CLR M03/M08 A3018 RMK AO2 SLP220 T10331078
                 51004 =
2018-12-18 20:54 METAR KVAY 190154Z AUTO 00000KT 10SM CLR M02/M08 A3017 RMK AO2 SLP218 T10221078
                 =
2018-12-18 19:54 METAR KVAY 190054Z AUTO 00000KT 10SM CLR M02/M08 A3017 RMK AO2 SLP218 T10171078
                 =
2018-12-18 18:54 METAR KVAY 182354Z AUTO 00000KT 10SM CLR 01/M09 A3017 RMK AO2 SLP216 T00111094
                 10044 20000 51018 =
2018-12-18 17:54 METAR KVAY 182254Z AUTO VRB03KT 10SM CLR 01/M08 A3015 RMK AO2 SLP209 T00061083 =
2018-12-18 16:54 METAR KVAY 182154Z AUTO 34006KT 10SM CLR 02/M08 A3013 RMK AO2 SLP205 T00171083 =
2018-12-18 15:54 METAR KVAY 182054Z AUTO 33006KT 10SM CLR 03/M09 A3011 RMK AO2 SLP198 T00331089
                 53010 =
2018-12-18 14:54 METAR KVAY 181954Z AUTO 32008KT 10SM CLR 04/M09 A3010 RMK AO2 SLP192 T00391094 =
2018-12-18 13:54 METAR KVAY 181854Z AUTO 34013G19KT 10SM CLR 04/M09 A3008 RMK AO2 SLP187
                 T00391094 =
2018-12-18 12:54 METAR KVAY 181754Z AUTO 33014G22KT 10SM CLR 04/M09 A3008 RMK AO2 SLP187
                 T00391094 10039 20011 50001 =
2018-12-18 11:54 METAR KVAY 181654Z AUTO 33013G20KT 270V010 10SM CLR 03/M09 A3009 RMK AO2 PK WND
                 31028/1606 SLP190 T00331089 =
2018-12-18 10:54 METAR KVAY 181554Z AUTO 33012G19KT 10SM CLR 03/M08 A3008 RMK AO2 PK WND
                 32026/1521 SLP186 T00331083 =
2018-12-18 09:54 METAR KVAY 181454Z AUTO 31008G21KT 10SM CLR 03/M08 A3008 RMK AO2 SLP186
                 T00281078 51029 =
2018-12-18 08:54 METAR KVAY 181354Z AUTO 31010G23KT 10SM CLR 02/M07 A3006 RMK AO2 SLP179
                 T00221072 =
2018-12-18 07:54 METAR KVAY 181254Z AUTO 32011KT 10SM CLR 01/M08 A3002 RMK AO2 SLP166 T00111078 =
2018-12-18 06:54 METAR KVAY 181154Z AUTO 31006KT 10SM CLR 02/M08 A2999 RMK AO2 SLP157 T00171083
                 10050 20011 51027 =
2018-12-18 05:54 METAR KVAY 181054Z AUTO 33013G24KT 10SM CLR 02/M09 A2997 RMK AO2 PK WND
                 33028/1010 SLP151 T00221089 =
2018-12-18 04:54 METAR KVAY 180954Z AUTO 32016G26KT 10SM CLR 03/M08 A2995 RMK AO2 PK WND
                 34026/0947 SLP142 T00281078 =
2018-12-18 03:54 METAR KVAY 180854Z AUTO 29015G23KT 260V320 10SM CLR 03/M07 A2991 RMK AO2 SLP130
                 T00331067 53016 =
2018-12-18 02:54 METAR KVAY 180754Z AUTO 32013G18KT 10SM OVC050 04/M06 A2990 RMK AO2 SLP123
                 T00391061 =
2018-12-18 01:54 METAR KVAY 180654Z AUTO 29010G17KT 10SM OVC055 04/M06 A2988 RMK AO2 SLP118
                 T00441061 =

Support USWX by starting your Amazon purchase here.